sensor_id;sensor_type;location;lat;lon;timestamp;P1;durP1;ratioP1;P2;durP2;ratioP2
1505;SDS011;744;51.436;7.356;2023-06-05T00:00:32;3.40;;;2.97;;
1505;SDS011;744;51.436;7.356;2023-06-05T00:02:59;2.70;;;2.10;;
1505;SDS011;744;51.436;7.356;2023-06-05T00:05:26;2.40;;;1.90;;
1505;SDS011;744;51.436;7.356;2023-06-05T00:07:53;5.37;;;2.37;;
1505;SDS011;744;51.436;7.356;2023-06-05T00:10:20;4.03;;;2.63;;
1505;SDS011;744;51.436;7.356;2023-06-05T00:12:47;8.17;;;2.03;;
1505;SDS011;744;51.436;7.356;2023-06-05T00:15:14;4.17;;;2.50;;
1505;SDS011;744;51.436;7.356;2023-06-05T00:17:41;4.13;;;2.40;;
1505;SDS011;744;51.436;7.356;2023-06-05T00:20:08;4.13;;;1.93;;
1505;SDS011;744;51.436;7.356;2023-06-05T00:22:36;3.03;;;2.73;;
1505;SDS011;744;51.436;7.356;2023-06-05T00:25:05;3.60;;;2.10;;
1505;SDS011;744;51.436;7.356;2023-06-05T00:27:32;4.13;;;2.53;;
1505;SDS011;744;51.436;7.356;2023-06-05T00:29:59;5.50;;;2.60;;
1505;SDS011;744;51.436;7.356;2023-06-05T00:32:26;3.10;;;2.37;;
1505;SDS011;744;51.436;7.356;2023-06-05T00:34:53;3.97;;;2.53;;
1505;SDS011;744;51.436;7.356;2023-06-05T00:37:20;3.20;;;2.50;;
1505;SDS011;744;51.436;7.356;2023-06-05T00:39:47;3.67;;;2.17;;
1505;SDS011;744;51.436;7.356;2023-06-05T00:42:13;4.27;;;2.10;;
1505;SDS011;744;51.436;7.356;2023-06-05T00:44:41;2.17;;;1.87;;
1505;SDS011;744;51.436;7.356;2023-06-05T00:47:08;4.47;;;2.90;;
1505;SDS011;744;51.436;7.356;2023-06-05T00:49:35;5.00;;;2.03;;
1505;SDS011;744;51.436;7.356;2023-06-05T00:52:03;3.20;;;2.43;;
1505;SDS011;744;51.436;7.356;2023-06-05T00:54:30;6.03;;;2.13;;
1505;SDS011;744;51.436;7.356;2023-06-05T00:56:57;3.13;;;2.03;;
1505;SDS011;744;51.436;7.356;2023-06-05T00:59:24;3.77;;;2.97;;
1505;SDS011;744;51.436;7.356;2023-06-05T01:01:52;9.57;;;2.77;;
1505;SDS011;744;51.436;7.356;2023-06-05T01:04:20;4.73;;;3.90;;
1505;SDS011;744;51.436;7.356;2023-06-05T01:06:49;10.03;;;3.30;;
1505;SDS011;744;51.436;7.356;2023-06-05T01:09:17;5.57;;;3.03;;
1505;SDS011;744;51.436;7.356;2023-06-05T01:11:50;7.53;;;2.77;;
1505;SDS011;744;51.436;7.356;2023-06-05T01:14:21;4.13;;;2.87;;
1505;SDS011;744;51.436;7.356;2023-06-05T01:16:49;4.03;;;2.57;;
1505;SDS011;744;51.436;7.356;2023-06-05T01:19:20;4.43;;;2.97;;
1505;SDS011;744;51.436;7.356;2023-06-05T01:21:51;5.70;;;2.20;;
1505;SDS011;744;51.436;7.356;2023-06-05T01:24:18;4.30;;;2.63;;
1505;SDS011;744;51.436;7.356;2023-06-05T01:26:56;4.10;;;2.60;;
1505;SDS011;744;51.436;7.356;2023-06-05T01:29:50;4.20;;;3.80;;
1505;SDS011;744;51.436;7.356;2023-06-05T01:32:46;5.53;;;2.70;;
1505;SDS011;744;51.436;7.356;2023-06-05T01:35:29;5.40;;;2.63;;
1505;SDS011;744;51.436;7.356;2023-06-05T01:37:59;5.70;;;2.80;;
1505;SDS011;744;51.436;7.356;2023-06-05T01:40:29;6.43;;;3.50;;
1505;SDS011;744;51.436;7.356;2023-06-05T01:42:57;3.17;;;2.40;;
1505;SDS011;744;51.436;7.356;2023-06-05T01:45:26;4.93;;;2.17;;
1505;SDS011;744;51.436;7.356;2023-06-05T01:47:53;5.57;;;2.77;;
1505;SDS011;744;51.436;7.356;2023-06-05T01:50:23;5.73;;;3.17;;
1505;SDS011;744;51.436;7.356;2023-06-05T01:52:50;7.07;;;3.13;;
1505;SDS011;744;51.436;7.356;2023-06-05T01:55:19;5.17;;;2.97;;
1505;SDS011;744;51.436;7.356;2023-06-05T01:57:50;7.13;;;2.83;;
1505;SDS011;744;51.436;7.356;2023-06-05T02:00:17;3.67;;;2.57;;
1505;SDS011;744;51.436;7.356;2023-06-05T02:02:45;3.13;;;2.83;;
1505;SDS011;744;51.436;7.356;2023-06-05T02:05:15;6.93;;;2.43;;
1505;SDS011;744;51.436;7.356;2023-06-05T02:07:46;3.47;;;2.70;;
1505;SDS011;744;51.436;7.356;2023-06-05T02:10:15;4.00;;;2.40;;
1505;SDS011;744;51.436;7.356;2023-06-05T02:12:45;4.00;;;2.97;;
1505;SDS011;744;51.436;7.356;2023-06-05T02:15:13;4.23;;;3.00;;
1505;SDS011;744;51.436;7.356;2023-06-05T02:17:42;3.50;;;2.50;;
1505;SDS011;744;51.436;7.356;2023-06-05T02:20:12;4.37;;;2.60;;
1505;SDS011;744;51.436;7.356;2023-06-05T02:22:39;3.77;;;3.10;;
1505;SDS011;744;51.436;7.356;2023-06-05T02:25:07;5.87;;;2.67;;
1505;SDS011;744;51.436;7.356;2023-06-05T02:27:34;4.50;;;2.90;;
1505;SDS011;744;51.436;7.356;2023-06-05T02:30:01;4.50;;;3.23;;
1505;SDS011;744;51.436;7.356;2023-06-05T02:32:28;3.10;;;2.67;;
1505;SDS011;744;51.436;7.356;2023-06-05T02:34:55;6.27;;;3.43;;
1505;SDS011;744;51.436;7.356;2023-06-05T02:37:25;4.00;;;3.00;;
1505;SDS011;744;51.436;7.356;2023-06-05T02:39:53;5.43;;;3.20;;
1505;SDS011;744;51.436;7.356;2023-06-05T02:42:20;3.13;;;2.80;;
1505;SDS011;744;51.436;7.356;2023-06-05T02:44:47;6.00;;;3.33;;
1505;SDS011;744;51.436;7.356;2023-06-05T02:47:15;3.77;;;2.90;;
1505;SDS011;744;51.436;7.356;2023-06-05T02:49:41;11.50;;;4.33;;
1505;SDS011;744;51.436;7.356;2023-06-05T02:52:08;5.30;;;3.90;;
1505;SDS011;744;51.436;7.356;2023-06-05T02:54:35;7.23;;;3.63;;
1505;SDS011;744;51.436;7.356;2023-06-05T02:57:04;5.10;;;2.60;;
1505;SDS011;744;51.436;7.356;2023-06-05T02:59:33;6.50;;;3.40;;
1505;SDS011;744;51.436;7.356;2023-06-05T03:02:05;4.13;;;3.60;;
1505;SDS011;744;51.436;7.356;2023-06-05T03:04:33;3.23;;;2.90;;
1505;SDS011;744;51.436;7.356;2023-06-05T03:07:00;6.33;;;3.10;;
1505;SDS011;744;51.436;7.356;2023-06-05T03:09:30;5.00;;;3.20;;
1505;SDS011;744;51.436;7.356;2023-06-05T03:11:58;5.50;;;3.60;;
1505;SDS011;744;51.436;7.356;2023-06-05T03:14:25;8.83;;;5.10;;
1505;SDS011;744;51.436;7.356;2023-06-05T03:16:57;5.07;;;3.53;;
1505;SDS011;744;51.436;7.356;2023-06-05T03:19:24;6.97;;;4.30;;
1505;SDS011;744;51.436;7.356;2023-06-05T03:21:52;5.40;;;3.40;;
1505;SDS011;744;51.436;7.356;2023-06-05T03:24:20;6.17;;;3.50;;
1505;SDS011;744;51.436;7.356;2023-06-05T03:26:50;6.00;;;3.80;;
1505;SDS011;744;51.436;7.356;2023-06-05T03:29:17;3.90;;;3.00;;
1505;SDS011;744;51.436;7.356;2023-06-05T03:31:44;5.00;;;4.00;;
1505;SDS011;744;51.436;7.356;2023-06-05T03:34:11;9.50;;;4.47;;
1505;SDS011;744;51.436;7.356;2023-06-05T03:36:38;4.70;;;3.63;;
1505;SDS011;744;51.436;7.356;2023-06-05T03:39:06;4.90;;;3.00;;
1505;SDS011;744;51.436;7.356;2023-06-05T03:41:33;6.00;;;4.43;;
1505;SDS011;744;51.436;7.356;2023-06-05T03:44:00;8.27;;;4.53;;
1505;SDS011;744;51.436;7.356;2023-06-05T03:46:29;6.13;;;4.03;;
1505;SDS011;744;51.436;7.356;2023-06-05T03:48:57;7.37;;;3.77;;
1505;SDS011;744;51.436;7.356;2023-06-05T03:51:31;5.70;;;3.80;;
1505;SDS011;744;51.436;7.356;2023-06-05T03:53:59;4.90;;;4.40;;
1505;SDS011;744;51.436;7.356;2023-06-05T03:56:27;4.53;;;3.60;;
1505;SDS011;744;51.436;7.356;2023-06-05T03:58:58;4.97;;;4.50;;
1505;SDS011;744;51.436;7.356;2023-06-05T04:01:35;5.63;;;4.17;;
1505;SDS011;744;51.436;7.356;2023-06-05T04:04:05;16.37;;;8.07;;
1505;SDS011;744;51.436;7.356;2023-06-05T04:06:32;8.13;;;5.80;;
1505;SDS011;744;51.436;7.356;2023-06-05T04:08:59;9.93;;;5.00;;
1505;SDS011;744;51.436;7.356;2023-06-05T04:11:26;3.80;;;3.27;;
1505;SDS011;744;51.436;7.356;2023-06-05T04:13:53;6.30;;;3.53;;
1505;SDS011;744;51.436;7.356;2023-06-05T04:16:20;4.33;;;3.90;;
1505;SDS011;744;51.436;7.356;2023-06-05T04:18:47;4.70;;;4.03;;
1505;SDS011;744;51.436;7.356;2023-06-05T04:21:14;6.97;;;3.97;;
1505;SDS011;744;51.436;7.356;2023-06-05T04:23:41;6.73;;;4.87;;
1505;SDS011;744;51.436;7.356;2023-06-05T04:26:07;8.00;;;4.40;;
1505;SDS011;744;51.436;7.356;2023-06-05T04:28:34;5.73;;;4.30;;
1505;SDS011;744;51.436;7.356;2023-06-05T04:31:01;9.00;;;5.70;;
1505;SDS011;744;51.436;7.356;2023-06-05T04:33:28;5.87;;;5.07;;
1505;SDS011;744;51.436;7.356;2023-06-05T04:35:55;8.77;;;4.40;;
1505;SDS011;744;51.436;7.356;2023-06-05T04:38:25;7.73;;;4.60;;
1505;SDS011;744;51.436;7.356;2023-06-05T04:40:52;4.90;;;4.40;;
1505;SDS011;744;51.436;7.356;2023-06-05T04:43:19;4.00;;;3.60;;
1505;SDS011;744;51.436;7.356;2023-06-05T04:45:46;4.97;;;4.47;;
1505;SDS011;744;51.436;7.356;2023-06-05T04:48:14;9.90;;;4.40;;
1505;SDS011;744;51.436;7.356;2023-06-05T04:50:41;6.87;;;4.67;;
1505;SDS011;744;51.436;7.356;2023-06-05T04:53:08;5.33;;;3.70;;
1505;SDS011;744;51.436;7.356;2023-06-05T04:55:35;6.27;;;4.30;;
1505;SDS011;744;51.436;7.356;2023-06-05T04:58:02;7.07;;;4.13;;
1505;SDS011;744;51.436;7.356;2023-06-05T05:00:30;4.23;;;3.83;;
1505;SDS011;744;51.436;7.356;2023-06-05T05:02:57;5.60;;;4.27;;
1505;SDS011;744;51.436;7.356;2023-06-05T05:05:25;7.07;;;4.23;;
1505;SDS011;744;51.436;7.356;2023-06-05T05:07:52;6.37;;;4.20;;
1505;SDS011;744;51.436;7.356;2023-06-05T05:10:22;7.07;;;4.20;;
1505;SDS011;744;51.436;7.356;2023-06-05T05:12:50;7.27;;;4.50;;
1505;SDS011;744;51.436;7.356;2023-06-05T05:15:16;4.90;;;4.40;;
1505;SDS011;744;51.436;7.356;2023-06-05T05:17:43;4.67;;;4.27;;
1505;SDS011;744;51.436;7.356;2023-06-05T05:20:11;6.53;;;4.70;;
1505;SDS011;744;51.436;7.356;2023-06-05T05:22:38;7.90;;;4.40;;
1505;SDS011;744;51.436;7.356;2023-06-05T05:25:05;6.77;;;4.80;;
1505;SDS011;744;51.436;7.356;2023-06-05T05:27:32;6.87;;;4.90;;
1505;SDS011;744;51.436;7.356;2023-06-05T05:29:59;8.30;;;4.37;;
1505;SDS011;744;51.436;7.356;2023-06-05T05:32:26;6.80;;;5.40;;
1505;SDS011;744;51.436;7.356;2023-06-05T05:34:53;5.47;;;4.47;;
1505;SDS011;744;51.436;7.356;2023-06-05T05:37:20;5.60;;;4.20;;
1505;SDS011;744;51.436;7.356;2023-06-05T05:39:47;6.50;;;4.90;;
1505;SDS011;744;51.436;7.356;2023-06-05T05:42:14;5.27;;;4.33;;
1505;SDS011;744;51.436;7.356;2023-06-05T05:44:41;5.50;;;4.43;;
1505;SDS011;744;51.436;7.356;2023-06-05T05:47:09;9.80;;;4.87;;
1505;SDS011;744;51.436;7.356;2023-06-05T05:49:37;5.90;;;4.17;;
1505;SDS011;744;51.436;7.356;2023-06-05T05:52:03;7.30;;;4.67;;
1505;SDS011;744;51.436;7.356;2023-06-05T05:54:31;9.90;;;5.33;;
1505;SDS011;744;51.436;7.356;2023-06-05T05:56:57;7.00;;;4.80;;
1505;SDS011;744;51.436;7.356;2023-06-05T05:59:24;4.40;;;3.90;;
1505;SDS011;744;51.436;7.356;2023-06-05T06:01:51;7.10;;;4.40;;
1505;SDS011;744;51.436;7.356;2023-06-05T06:04:19;7.03;;;4.63;;
1505;SDS011;744;51.436;7.356;2023-06-05T06:06:46;9.40;;;5.50;;
1505;SDS011;744;51.436;7.356;2023-06-05T06:09:18;5.90;;;4.97;;
1505;SDS011;744;51.436;7.356;2023-06-05T06:11:45;5.83;;;4.47;;
1505;SDS011;744;51.436;7.356;2023-06-05T06:14:12;5.37;;;4.40;;
1505;SDS011;744;51.436;7.356;2023-06-05T06:16:39;6.77;;;4.73;;
1505;SDS011;744;51.436;7.356;2023-06-05T06:19:06;5.93;;;5.33;;
1505;SDS011;744;51.436;7.356;2023-06-05T06:21:34;9.13;;;4.63;;
1505;SDS011;744;51.436;7.356;2023-06-05T06:24:01;12.00;;;6.07;;
1505;SDS011;744;51.436;7.356;2023-06-05T06:26:29;6.83;;;4.30;;
1505;SDS011;744;51.436;7.356;2023-06-05T06:28:58;5.23;;;4.73;;
1505;SDS011;744;51.436;7.356;2023-06-05T06:31:25;6.13;;;4.93;;
1505;SDS011;744;51.436;7.356;2023-06-05T06:33:52;7.97;;;4.60;;
1505;SDS011;744;51.436;7.356;2023-06-05T06:36:19;7.27;;;4.77;;
1505;SDS011;744;51.436;7.356;2023-06-05T06:38:46;11.10;;;4.87;;
1505;SDS011;744;51.436;7.356;2023-06-05T06:41:13;7.17;;;4.70;;
1505;SDS011;744;51.436;7.356;2023-06-05T06:43:40;5.00;;;4.50;;
1505;SDS011;744;51.436;7.356;2023-06-05T06:46:07;5.97;;;5.30;;
1505;SDS011;744;51.436;7.356;2023-06-05T06:48:34;13.20;;;4.87;;
1505;SDS011;744;51.436;7.356;2023-06-05T06:51:01;5.53;;;4.87;;
1505;SDS011;744;51.436;7.356;2023-06-05T06:53:28;7.37;;;4.53;;
1505;SDS011;744;51.436;7.356;2023-06-05T06:55:55;8.57;;;5.20;;
1505;SDS011;744;51.436;7.356;2023-06-05T06:58:22;6.47;;;4.77;;
1505;SDS011;744;51.436;7.356;2023-06-05T07:00:50;7.60;;;5.53;;
1505;SDS011;744;51.436;7.356;2023-06-05T07:03:17;9.20;;;4.43;;
1505;SDS011;744;51.436;7.356;2023-06-05T07:05:44;8.43;;;4.60;;
1505;SDS011;744;51.436;7.356;2023-06-05T07:08:11;10.20;;;5.67;;
1505;SDS011;744;51.436;7.356;2023-06-05T07:10:39;5.30;;;4.37;;
1505;SDS011;744;51.436;7.356;2023-06-05T07:13:06;6.43;;;4.70;;
1505;SDS011;744;51.436;7.356;2023-06-05T07:15:33;7.10;;;5.30;;
1505;SDS011;744;51.436;7.356;2023-06-05T07:18:00;7.23;;;4.70;;
1505;SDS011;744;51.436;7.356;2023-06-05T07:20:27;7.00;;;4.90;;
1505;SDS011;744;51.436;7.356;2023-06-05T07:22:54;7.80;;;5.53;;
1505;SDS011;744;51.436;7.356;2023-06-05T07:25:21;5.67;;;4.53;;
1505;SDS011;744;51.436;7.356;2023-06-05T07:27:50;7.03;;;4.67;;
1505;SDS011;744;51.436;7.356;2023-06-05T07:30:17;7.80;;;5.10;;
1505;SDS011;744;51.436;7.356;2023-06-05T07:32:44;4.33;;;3.93;;
1505;SDS011;744;51.436;7.356;2023-06-05T07:35:12;5.70;;;4.53;;
1505;SDS011;744;51.436;7.356;2023-06-05T07:37:40;4.50;;;4.10;;
1505;SDS011;744;51.436;7.356;2023-06-05T07:40:08;6.60;;;4.30;;
1505;SDS011;744;51.436;7.356;2023-06-05T07:42:35;10.43;;;4.40;;
1505;SDS011;744;51.436;7.356;2023-06-05T07:45:02;4.33;;;3.93;;
1505;SDS011;744;51.436;7.356;2023-06-05T07:47:29;10.67;;;4.43;;
1505;SDS011;744;51.436;7.356;2023-06-05T07:49:56;5.50;;;4.33;;
1505;SDS011;744;51.436;7.356;2023-06-05T07:52:29;6.70;;;4.30;;
1505;SDS011;744;51.436;7.356;2023-06-05T07:54:57;5.80;;;3.83;;
1505;SDS011;744;51.436;7.356;2023-06-05T07:57:24;13.60;;;4.77;;
1505;SDS011;744;51.436;7.356;2023-06-05T07:59:52;6.53;;;4.70;;
1505;SDS011;744;51.436;7.356;2023-06-05T08:02:20;7.20;;;4.40;;
1505;SDS011;744;51.436;7.356;2023-06-05T08:04:47;7.70;;;4.80;;
1505;SDS011;744;51.436;7.356;2023-06-05T08:07:14;6.60;;;4.30;;
1505;SDS011;744;51.436;7.356;2023-06-05T08:09:41;6.93;;;4.37;;
1505;SDS011;744;51.436;7.356;2023-06-05T08:12:08;7.60;;;4.20;;
1505;SDS011;744;51.436;7.356;2023-06-05T08:14:35;7.60;;;3.90;;
1505;SDS011;744;51.436;7.356;2023-06-05T08:17:03;4.97;;;3.67;;
1505;SDS011;744;51.436;7.356;2023-06-05T08:19:31;9.10;;;4.37;;
1505;SDS011;744;51.436;7.356;2023-06-05T08:21:57;6.67;;;4.53;;
1505;SDS011;744;51.436;7.356;2023-06-05T08:24:24;8.67;;;5.10;;
1505;SDS011;744;51.436;7.356;2023-06-05T08:26:53;11.53;;;4.40;;
1505;SDS011;744;51.436;7.356;2023-06-05T08:29:20;4.80;;;3.60;;
1505;SDS011;744;51.436;7.356;2023-06-05T08:31:47;5.60;;;3.73;;
1505;SDS011;744;51.436;7.356;2023-06-05T08:34:14;9.00;;;4.13;;
1505;SDS011;744;51.436;7.356;2023-06-05T08:36:41;4.33;;;3.40;;
1505;SDS011;744;51.436;7.356;2023-06-05T08:39:09;16.80;;;5.00;;
1505;SDS011;744;51.436;7.356;2023-06-05T08:41:36;5.93;;;3.80;;
1505;SDS011;744;51.436;7.356;2023-06-05T08:44:04;7.07;;;3.53;;
1505;SDS011;744;51.436;7.356;2023-06-05T08:46:31;12.70;;;4.20;;
1505;SDS011;744;51.436;7.356;2023-06-05T08:49:05;6.77;;;4.57;;
1505;SDS011;744;51.436;7.356;2023-06-05T08:51:35;8.57;;;4.43;;
1505;SDS011;744;51.436;7.356;2023-06-05T08:54:06;6.90;;;3.97;;
1505;SDS011;744;51.436;7.356;2023-06-05T08:56:42;5.83;;;4.23;;
1505;SDS011;744;51.436;7.356;2023-06-05T08:59:10;5.23;;;4.73;;
1505;SDS011;744;51.436;7.356;2023-06-05T09:01:41;5.33;;;4.50;;
1505;SDS011;744;51.436;7.356;2023-06-05T09:04:10;7.20;;;4.10;;
1505;SDS011;744;51.436;7.356;2023-06-05T09:06:37;6.50;;;4.43;;
1505;SDS011;744;51.436;7.356;2023-06-05T09:09:06;6.70;;;3.93;;
1505;SDS011;744;51.436;7.356;2023-06-05T09:11:34;9.40;;;4.70;;
1505;SDS011;744;51.436;7.356;2023-06-05T09:14:01;5.60;;;4.17;;
1505;SDS011;744;51.436;7.356;2023-06-05T09:16:38;4.63;;;3.97;;
1505;SDS011;744;51.436;7.356;2023-06-05T09:19:09;5.00;;;3.67;;
1505;SDS011;744;51.436;7.356;2023-06-05T09:21:40;5.60;;;3.20;;
1505;SDS011;744;51.436;7.356;2023-06-05T09:24:18;7.33;;;4.17;;
1505;SDS011;744;51.436;7.356;2023-06-05T09:29:33;7.10;;;4.27;;
1505;SDS011;744;51.436;7.356;2023-06-05T09:32:02;17.27;;;4.50;;
1505;SDS011;744;51.436;7.356;2023-06-05T09:37:06;5.37;;;3.90;;
1505;SDS011;744;51.436;7.356;2023-06-05T09:39:35;9.13;;;4.50;;
1505;SDS011;744;51.436;7.356;2023-06-05T09:42:03;5.10;;;3.97;;
1505;SDS011;744;51.436;7.356;2023-06-05T09:44:31;4.83;;;3.93;;
1505;SDS011;744;51.436;7.356;2023-06-05T09:47:00;4.47;;;3.50;;
1505;SDS011;744;51.436;7.356;2023-06-05T09:52:05;5.90;;;4.13;;
1505;SDS011;744;51.436;7.356;2023-06-05T09:54:37;6.40;;;4.10;;
1505;SDS011;744;51.436;7.356;2023-06-05T09:57:06;13.33;;;4.53;;
1505;SDS011;744;51.436;7.356;2023-06-05T09:59:49;6.07;;;5.03;;
1505;SDS011;744;51.436;7.356;2023-06-05T10:02:24;9.03;;;4.60;;
1505;SDS011;744;51.436;7.356;2023-06-05T10:07:30;4.43;;;3.40;;
1505;SDS011;744;51.436;7.356;2023-06-05T10:10:03;4.40;;;4.00;;
1505;SDS011;744;51.436;7.356;2023-06-05T10:12:31;6.77;;;3.80;;
1505;SDS011;744;51.436;7.356;2023-06-05T10:14:59;6.67;;;3.30;;
1505;SDS011;744;51.436;7.356;2023-06-05T10:17:27;4.60;;;3.50;;
1505;SDS011;744;51.436;7.356;2023-06-05T10:19:54;11.23;;;5.00;;
1505;SDS011;744;51.436;7.356;2023-06-05T10:22:22;4.80;;;3.67;;
1505;SDS011;744;51.436;7.356;2023-06-05T10:24:53;7.20;;;3.83;;
1505;SDS011;744;51.436;7.356;2023-06-05T10:38:36;4.00;;;3.70;;
1505;SDS011;744;51.436;7.356;2023-06-05T10:41:05;4.40;;;3.90;;
1505;SDS011;744;51.436;7.356;2023-06-05T10:43:33;9.03;;;3.70;;
1505;SDS011;744;51.436;7.356;2023-06-05T10:46:29;6.83;;;3.87;;
1505;SDS011;744;51.436;7.356;2023-06-05T10:49:18;5.50;;;3.50;;
1505;SDS011;744;51.436;7.356;2023-06-05T10:51:47;7.43;;;3.70;;
1505;SDS011;744;51.436;7.356;2023-06-05T10:59:23;4.17;;;3.10;;
1505;SDS011;744;51.436;7.356;2023-06-05T11:10:09;4.53;;;3.20;;
1505;SDS011;744;51.436;7.356;2023-06-05T11:20:56;5.57;;;3.57;;
1505;SDS011;744;51.436;7.356;2023-06-05T11:23:23;9.53;;;2.97;;
1505;SDS011;744;51.436;7.356;2023-06-05T11:25:55;2.80;;;2.20;;
1505;SDS011;744;51.436;7.356;2023-06-05T11:28:39;6.60;;;3.27;;
1505;SDS011;744;51.436;7.356;2023-06-05T11:31:07;5.20;;;2.93;;
1505;SDS011;744;51.436;7.356;2023-06-05T11:33:35;6.47;;;2.63;;
1505;SDS011;744;51.436;7.356;2023-06-05T11:36:03;7.50;;;3.50;;
1505;SDS011;744;51.436;7.356;2023-06-05T11:38:33;5.77;;;3.00;;
1505;SDS011;744;51.436;7.356;2023-06-05T11:41:04;4.90;;;2.40;;
1505;SDS011;744;51.436;7.356;2023-06-05T11:43:33;3.37;;;2.70;;
1505;SDS011;744;51.436;7.356;2023-06-05T11:46:08;3.50;;;2.60;;
1505;SDS011;744;51.436;7.356;2023-06-05T11:48:37;7.07;;;2.83;;
1505;SDS011;744;51.436;7.356;2023-06-05T11:51:09;2.70;;;1.97;;
1505;SDS011;744;51.436;7.356;2023-06-05T11:53:42;4.27;;;2.67;;
1505;SDS011;744;51.436;7.356;2023-06-05T11:56:12;4.33;;;2.77;;
1505;SDS011;744;51.436;7.356;2023-06-05T11:58:41;2.47;;;2.27;;
1505;SDS011;744;51.436;7.356;2023-06-05T12:03:49;5.20;;;2.30;;
1505;SDS011;744;51.436;7.356;2023-06-05T12:06:31;2.87;;;2.67;;
1505;SDS011;744;51.436;7.356;2023-06-05T12:09:12;3.33;;;2.27;;
1505;SDS011;744;51.436;7.356;2023-06-05T12:11:41;14.10;;;3.63;;
1505;SDS011;744;51.436;7.356;2023-06-05T12:14:11;6.40;;;2.50;;
1505;SDS011;744;51.436;7.356;2023-06-05T12:16:39;3.23;;;2.40;;
1505;SDS011;744;51.436;7.356;2023-06-05T12:19:16;4.13;;;2.90;;
1505;SDS011;744;51.436;7.356;2023-06-05T12:21:45;4.67;;;2.77;;
1505;SDS011;744;51.436;7.356;2023-06-05T12:24:14;10.73;;;7.07;;
1505;SDS011;744;51.436;7.356;2023-06-05T12:26:47;9.90;;;3.67;;
1505;SDS011;744;51.436;7.356;2023-06-05T12:29:18;4.33;;;3.23;;
1505;SDS011;744;51.436;7.356;2023-06-05T12:31:45;2.67;;;2.43;;
1505;SDS011;744;51.436;7.356;2023-06-05T12:34:12;3.50;;;2.57;;
1505;SDS011;744;51.436;7.356;2023-06-05T12:36:41;2.63;;;2.30;;
1505;SDS011;744;51.436;7.356;2023-06-05T12:39:10;3.20;;;2.77;;
1505;SDS011;744;51.436;7.356;2023-06-05T12:41:37;2.63;;;2.43;;
1505;SDS011;744;51.436;7.356;2023-06-05T12:44:06;4.73;;;2.50;;
1505;SDS011;744;51.436;7.356;2023-06-05T12:46:34;5.00;;;3.07;;
1505;SDS011;744;51.436;7.356;2023-06-05T12:49:02;2.60;;;2.40;;
1505;SDS011;744;51.436;7.356;2023-06-05T12:51:31;3.60;;;2.60;;
1505;SDS011;744;51.436;7.356;2023-06-05T12:53:58;2.77;;;2.20;;
1505;SDS011;744;51.436;7.356;2023-06-05T12:56:26;2.57;;;2.30;;
1505;SDS011;744;51.436;7.356;2023-06-05T12:58:56;4.67;;;3.20;;
1505;SDS011;744;51.436;7.356;2023-06-05T13:01:24;3.00;;;2.40;;
1505;SDS011;744;51.436;7.356;2023-06-05T13:03:52;4.87;;;2.20;;
1505;SDS011;744;51.436;7.356;2023-06-05T13:06:19;9.93;;;2.57;;
1505;SDS011;744;51.436;7.356;2023-06-05T13:08:46;3.10;;;2.07;;
1505;SDS011;744;51.436;7.356;2023-06-05T13:11:14;5.60;;;2.53;;
1505;SDS011;744;51.436;7.356;2023-06-05T13:13:41;3.17;;;2.20;;
1505;SDS011;744;51.436;7.356;2023-06-05T13:16:09;6.20;;;2.47;;
1505;SDS011;744;51.436;7.356;2023-06-05T13:18:37;6.83;;;2.20;;
1505;SDS011;744;51.436;7.356;2023-06-05T13:21:04;3.53;;;1.77;;
1505;SDS011;744;51.436;7.356;2023-06-05T13:23:31;3.90;;;2.80;;
1505;SDS011;744;51.436;7.356;2023-06-05T13:25:59;3.03;;;1.90;;
1505;SDS011;744;51.436;7.356;2023-06-05T13:28:27;4.03;;;2.63;;
1505;SDS011;744;51.436;7.356;2023-06-05T13:30:55;3.93;;;2.23;;
1505;SDS011;744;51.436;7.356;2023-06-05T13:33:22;4.53;;;2.30;;
1505;SDS011;744;51.436;7.356;2023-06-05T13:35:51;4.67;;;2.50;;
1505;SDS011;744;51.436;7.356;2023-06-05T13:38:20;9.23;;;2.67;;
1505;SDS011;744;51.436;7.356;2023-06-05T13:40:48;13.03;;;3.20;;
1505;SDS011;744;51.436;7.356;2023-06-05T13:43:16;3.23;;;2.50;;
1505;SDS011;744;51.436;7.356;2023-06-05T13:45:44;2.60;;;2.10;;
1505;SDS011;744;51.436;7.356;2023-06-05T13:48:11;2.60;;;2.10;;
1505;SDS011;744;51.436;7.356;2023-06-05T13:50:38;2.37;;;1.83;;
1505;SDS011;744;51.436;7.356;2023-06-05T13:53:05;5.07;;;2.93;;
1505;SDS011;744;51.436;7.356;2023-06-05T13:55:32;2.17;;;1.80;;
1505;SDS011;744;51.436;7.356;2023-06-05T13:57:59;2.80;;;2.27;;
1505;SDS011;744;51.436;7.356;2023-06-05T14:00:28;2.40;;;2.10;;
1505;SDS011;744;51.436;7.356;2023-06-05T14:02:56;3.47;;;2.50;;
1505;SDS011;744;51.436;7.356;2023-06-05T14:05:24;3.33;;;2.07;;
1505;SDS011;744;51.436;7.356;2023-06-05T14:07:52;4.33;;;1.77;;
1505;SDS011;744;51.436;7.356;2023-06-05T14:10:20;3.77;;;1.77;;
1505;SDS011;744;51.436;7.356;2023-06-05T14:12:48;3.07;;;1.80;;
1505;SDS011;744;51.436;7.356;2023-06-05T14:15:17;2.63;;;2.43;;
1505;SDS011;744;51.436;7.356;2023-06-05T14:17:48;3.10;;;2.00;;
1505;SDS011;744;51.436;7.356;2023-06-05T14:20:17;15.03;;;3.87;;
1505;SDS011;744;51.436;7.356;2023-06-05T14:22:45;12.80;;;3.57;;
1505;SDS011;744;51.436;7.356;2023-06-05T14:25:12;4.83;;;1.90;;
1505;SDS011;744;51.436;7.356;2023-06-05T14:27:39;9.93;;;2.57;;
1505;SDS011;744;51.436;7.356;2023-06-05T14:30:06;3.90;;;1.97;;
1505;SDS011;744;51.436;7.356;2023-06-05T14:32:35;3.80;;;1.93;;
1505;SDS011;744;51.436;7.356;2023-06-05T14:35:02;2.10;;;1.80;;
1505;SDS011;744;51.436;7.356;2023-06-05T14:37:30;2.53;;;2.07;;
1505;SDS011;744;51.436;7.356;2023-06-05T14:39:56;2.33;;;1.90;;
1505;SDS011;744;51.436;7.356;2023-06-05T14:42:23;7.00;;;2.60;;
1505;SDS011;744;51.436;7.356;2023-06-05T14:44:50;3.90;;;2.47;;
1505;SDS011;744;51.436;7.356;2023-06-05T14:47:17;2.30;;;2.10;;
1505;SDS011;744;51.436;7.356;2023-06-05T14:49:44;6.30;;;2.73;;
1505;SDS011;744;51.436;7.356;2023-06-05T14:52:11;8.63;;;3.27;;
1505;SDS011;744;51.436;7.356;2023-06-05T14:54:38;2.30;;;1.90;;
1505;SDS011;744;51.436;7.356;2023-06-05T14:57:12;3.30;;;2.60;;
1505;SDS011;744;51.436;7.356;2023-06-05T14:59:39;4.33;;;2.20;;
1505;SDS011;744;51.436;7.356;2023-06-05T15:02:06;2.30;;;2.10;;
1505;SDS011;744;51.436;7.356;2023-06-05T15:04:33;6.47;;;3.80;;
1505;SDS011;744;51.436;7.356;2023-06-05T15:07:02;6.53;;;2.37;;
1505;SDS011;744;51.436;7.356;2023-06-05T15:09:29;2.67;;;2.47;;
1505;SDS011;744;51.436;7.356;2023-06-05T15:11:56;3.63;;;3.00;;
1505;SDS011;744;51.436;7.356;2023-06-05T15:14:23;2.83;;;2.63;;
1505;SDS011;744;51.436;7.356;2023-06-05T15:16:52;5.03;;;2.10;;
1505;SDS011;744;51.436;7.356;2023-06-05T15:19:19;2.50;;;2.40;;
1505;SDS011;744;51.436;7.356;2023-06-05T15:21:46;3.50;;;2.20;;
1505;SDS011;744;51.436;7.356;2023-06-05T15:24:13;2.60;;;2.03;;
1505;SDS011;744;51.436;7.356;2023-06-05T15:26:40;4.67;;;1.83;;
1505;SDS011;744;51.436;7.356;2023-06-05T15:29:07;4.80;;;2.50;;
1505;SDS011;744;51.436;7.356;2023-06-05T15:31:34;2.37;;;2.00;;
1505;SDS011;744;51.436;7.356;2023-06-05T15:34:01;8.57;;;3.93;;
1505;SDS011;744;51.436;7.356;2023-06-05T15:36:28;5.17;;;2.10;;
1505;SDS011;744;51.436;7.356;2023-06-05T15:38:55;3.07;;;2.30;;
1505;SDS011;744;51.436;7.356;2023-06-05T15:41:22;2.00;;;1.83;;
1505;SDS011;744;51.436;7.356;2023-06-05T15:43:49;2.27;;;2.00;;
1505;SDS011;744;51.436;7.356;2023-06-05T15:46:17;2.40;;;2.20;;
1505;SDS011;744;51.436;7.356;2023-06-05T15:48:43;2.80;;;2.30;;
1505;SDS011;744;51.436;7.356;2023-06-05T15:51:10;2.87;;;2.20;;
1505;SDS011;744;51.436;7.356;2023-06-05T15:53:37;3.50;;;1.77;;
1505;SDS011;744;51.436;7.356;2023-06-05T15:56:20;3.53;;;2.80;;
1505;SDS011;744;51.436;7.356;2023-06-05T15:58:47;3.03;;;2.63;;
1505;SDS011;744;51.436;7.356;2023-06-05T16:01:14;4.53;;;2.73;;
1505;SDS011;744;51.436;7.356;2023-06-05T16:03:42;2.70;;;2.50;;
1505;SDS011;744;51.436;7.356;2023-06-05T16:06:08;4.60;;;3.20;;
1505;SDS011;744;51.436;7.356;2023-06-05T16:08:39;3.33;;;2.77;;
1505;SDS011;744;51.436;7.356;2023-06-05T16:11:07;3.47;;;2.90;;
1505;SDS011;744;51.436;7.356;2023-06-05T16:13:36;2.60;;;2.40;;
1505;SDS011;744;51.436;7.356;2023-06-05T16:16:04;4.33;;;3.27;;
1505;SDS011;744;51.436;7.356;2023-06-05T16:18:31;6.73;;;2.03;;
1505;SDS011;744;51.436;7.356;2023-06-05T16:20:58;4.37;;;2.80;;
1505;SDS011;744;51.436;7.356;2023-06-05T16:23:30;3.70;;;2.63;;